McNeil Island, Washington
Current Conditions -  °F | °C
As of 2:58 AM on Saturday 20 Dec 2014 (Local Time) from KTCM Reporting Station
Light Rain Light Rain  
Wind Chill: 41°   Ceiling: 5000
Heat Index: 45°   Visibility: 10mi
Dew Point: 44°   Wind: 8mph
Humidity: 96%   Direction: 150°SSE
Pressure: 29.76"   Gusts: NA
Location:  47.1696°N, 122.593°W
Report Text: KTCM 201058Z AUTO 15007KT 10SM -RA SCT036 BKN050 07/07 A2976 RMK AO2 CIG 042 RWY34 SLP082 P0001 T00730067
Loading
Personal Weather Stations






























Interactive Weather Map New forecast layout! Learn more

10-Day Weather Forecast

Advertisements
Track Severe Weather on mobile